sensor_id;sensor_type;location;lat;lon;timestamp;temperature;humidity
40782;DHT22;26493;51.938;7.626;2022-08-16T04:35:47;22.30;99.90
40782;DHT22;26493;51.938;7.626;2022-08-16T04:38:13;19.80;99.90
40782;DHT22;26493;51.938;7.626;2022-08-16T04:40:39;19.60;99.90
40782;DHT22;26493;51.938;7.626;2022-08-16T04:43:05;19.50;99.90
40782;DHT22;26493;51.938;7.626;2022-08-16T04:45:31;19.50;99.90
40782;DHT22;26493;51.938;7.626;2022-08-16T04:47:57;19.50;99.90
40782;DHT22;26493;51.938;7.626;2022-08-16T04:50:25;19.50;99.90
40782;DHT22;26493;51.938;7.626;2022-08-16T04:52:52;19.50;99.90
40782;DHT22;26493;51.938;7.626;2022-08-16T04:55:22;19.50;99.90
40782;DHT22;26493;51.938;7.626;2022-08-16T04:57:48;19.50;99.90
40782;DHT22;26493;51.938;7.626;2022-08-16T05:00:19;19.50;99.90
40782;DHT22;26493;51.938;7.626;2022-08-16T05:02:47;19.50;99.90
40782;DHT22;26493;51.938;7.626;2022-08-16T05:05:13;19.50;99.90
40782;DHT22;26493;51.938;7.626;2022-08-16T05:07:39;19.50;99.90
40782;DHT22;26493;51.938;7.626;2022-08-16T05:10:07;19.50;99.90
40782;DHT22;26493;51.938;7.626;2022-08-16T05:12:33;19.50;99.90
40782;DHT22;26493;51.938;7.626;2022-08-16T05:14:59;19.50;99.90
40782;DHT22;26493;51.938;7.626;2022-08-16T05:17:25;19.40;99.90
40782;DHT22;26493;51.938;7.626;2022-08-16T05:19:51;19.50;99.90
40782;DHT22;26493;51.938;7.626;2022-08-16T05:22:17;19.50;99.90
40782;DHT22;26493;51.938;7.626;2022-08-16T05:24:43;19.50;99.90
40782;DHT22;26493;51.938;7.626;2022-08-16T05:27:08;19.60;99.90
40782;DHT22;26493;51.938;7.626;2022-08-16T05:29:34;19.60;99.90
40782;DHT22;26493;51.938;7.626;2022-08-16T05:32:00;19.80;99.90
40782;DHT22;26493;51.938;7.626;2022-08-16T05:34:27;19.90;99.90
40782;DHT22;26493;51.938;7.626;2022-08-16T05:36:53;20.00;99.90
40782;DHT22;26493;51.938;7.626;2022-08-16T05:39:22;20.10;99.90
40782;DHT22;26493;51.938;7.626;2022-08-16T05:41:48;20.10;99.90
40782;DHT22;26493;51.938;7.626;2022-08-16T05:44:14;20.20;99.90
40782;DHT22;26493;51.938;7.626;2022-08-16T05:46:40;20.20;99.90
40782;DHT22;26493;51.938;7.626;2022-08-16T05:49:07;20.30;99.90
40782;DHT22;26493;51.938;7.626;2022-08-16T05:51:33;20.30;99.90
40782;DHT22;26493;51.938;7.626;2022-08-16T05:53:58;20.20;99.90
40782;DHT22;26493;51.938;7.626;2022-08-16T05:56:24;20.20;99.90
40782;DHT22;26493;51.938;7.626;2022-08-16T05:58:49;20.20;99.90
40782;DHT22;26493;51.938;7.626;2022-08-16T06:01:15;20.10;99.90
40782;DHT22;26493;51.938;7.626;2022-08-16T06:03:41;19.90;99.90
40782;DHT22;26493;51.938;7.626;2022-08-16T06:06:07;20.00;99.90
40782;DHT22;26493;51.938;7.626;2022-08-16T06:08:32;19.90;99.90
40782;DHT22;26493;51.938;7.626;2022-08-16T06:10:58;19.90;99.90
40782;DHT22;26493;51.938;7.626;2022-08-16T06:13:24;19.90;99.90
40782;DHT22;26493;51.938;7.626;2022-08-16T06:20:43;19.90;99.90
40782;DHT22;26493;51.938;7.626;2022-08-16T06:23:09;19.90;99.90
40782;DHT22;26493;51.938;7.626;2022-08-16T06:25:35;19.90;99.90
40782;DHT22;26493;51.938;7.626;2022-08-16T06:28:03;19.90;99.90
40782;DHT22;26493;51.938;7.626;2022-08-16T06:30:28;20.00;99.90
40782;DHT22;26493;51.938;7.626;2022-08-16T06:32:56;20.20;99.90
40782;DHT22;26493;51.938;7.626;2022-08-16T06:35:22;20.20;99.90
40782;DHT22;26493;51.938;7.626;2022-08-16T06:37:48;20.30;99.90
40782;DHT22;26493;51.938;7.626;2022-08-16T06:40:14;20.40;99.90
40782;DHT22;26493;51.938;7.626;2022-08-16T06:42:40;20.50;99.90
40782;DHT22;26493;51.938;7.626;2022-08-16T06:45:06;20.60;99.90
40782;DHT22;26493;51.938;7.626;2022-08-16T06:47:32;20.60;99.90
40782;DHT22;26493;51.938;7.626;2022-08-16T06:49:57;20.60;99.90
40782;DHT22;26493;51.938;7.626;2022-08-16T06:52:23;20.70;99.90
40782;DHT22;26493;51.938;7.626;2022-08-16T06:54:49;20.80;99.90
40782;DHT22;26493;51.938;7.626;2022-08-16T06:57:14;20.90;99.90
40782;DHT22;26493;51.938;7.626;2022-08-16T06:59:42;21.00;99.90
40782;DHT22;26493;51.938;7.626;2022-08-16T07:02:08;21.10;99.90
40782;DHT22;26493;51.938;7.626;2022-08-16T07:04:34;21.20;99.90
